Time;durP1;ratioP1;P1;durP2;ratioP2;P2;SDS_P1;SDS_P2;PMS_P1;PMS_P2;Temp;Humidity;BMP_temperature;BMP_pressure;BME280_temperature;BME280_humidity;BME280_pressure;Samples;Min_cycle;Max_cycle;Signal;HPM_P1;HPM_P2
2021/08/05 00:00:31;;;;;;;8.25;6.03;;;;;;;;;;6216127;28;20062;-79
2021/08/05 00:03:33;;;;;;;9.20;6.40;;;;;;;;;;6219489;28;20045;-79
2021/08/05 00:06:35;;;;;;;9.63;6.32;;;;;;;;;;6215023;28;20045;-80
2021/08/05 00:09:38;;;;;;;10.80;6.53;;;;;;;;;;6218970;28;20046;-79
2021/08/05 00:12:40;;;;;;;9.32;6.80;;;;;;;;;;6217256;28;20116;-79
2021/08/05 00:15:42;;;;;;;12.57;6.35;;;;;;;;;;6218041;28;20088;-80
2021/08/05 00:18:44;;;;;;;10.43;6.80;;;;;;;;;;6218019;28;20042;-79
2021/08/05 00:21:45;;;;;;;11.07;7.13;;;;;;;;;;6217112;28;20052;-79
2021/08/05 00:24:47;;;;;;;10.52;6.53;;;;;;;;;;6218180;28;20065;-80
2021/08/05 00:27:48;;;;;;;8.68;6.38;;;;;;;;;;6217403;28;20076;-80
2021/08/05 00:30:50;;;;;;;12.07;7.40;;;;;;;;;;6217197;28;20450;-79
2021/08/05 00:33:52;;;;;;;11.02;6.93;;;;;;;;;;6221208;28;20085;-80
2021/08/05 00:36:54;;;;;;;9.50;6.38;;;;;;;;;;6183348;28;20042;-79
2021/08/05 00:39:56;;;;;;;8.55;6.00;;;;;;;;;;6212320;28;20073;-79
2021/08/05 00:42:58;;;;;;;9.40;6.50;;;;;;;;;;6212603;28;20113;-79
2021/08/05 00:46:01;;;;;;;10.68;7.10;;;;;;;;;;6214817;28;20038;-79
2021/08/05 00:49:03;;;;;;;10.05;6.93;;;;;;;;;;6237949;28;20046;-80
2021/08/05 00:52:07;;;;;;;10.88;7.35;;;;;;;;;;6220799;28;20042;-79
2021/08/05 00:55:09;;;;;;;10.88;7.35;;;;;;;;;;6244020;28;20068;-79
2021/08/05 00:58:10;;;;;;;10.90;7.30;;;;;;;;;;6229330;28;20068;-79
2021/08/05 01:01:22;;;;;;;10.15;6.50;;;;;;;;;;6194912;28;20042;-79
2021/08/05 01:04:25;;;;;;;9.05;6.07;;;;;;;;;;6196021;28;20046;-79
2021/08/05 01:07:49;;;;;;;9.00;6.18;;;;;;;;;;6221235;28;20050;-80
2021/08/05 01:10:56;;;;;;;;;;;;;;;;;;6229074;28;20561;-79
2021/08/05 01:14:05;;;;;;;8.55;5.70;;;;;;;;;;6227547;28;19921;-79
2021/08/05 01:17:10;;;;;;;8.00;5.93;;;;;;;;;;6245821;28;20042;-79
2021/08/05 01:20:17;;;;;;;9.68;6.10;;;;;;;;;;6227161;28;20041;-79
2021/08/05 01:23:41;;;;;;;12.75;6.20;;;;;;;;;;6245757;28;20041;-79
2021/08/05 01:26:54;;;;;;;11.35;6.13;;;;;;;;;;6243789;28;20049;-80
2021/08/05 01:30:01;;;;;;;9.55;5.97;;;;;;;;;;6208662;28;20050;-79
2021/08/05 01:33:04;;;;;;;9.25;6.35;;;;;;;;;;6221185;28;20045;-79
2021/08/05 01:36:06;;;;;;;11.75;6.47;;;;;;;;;;6232761;28;20049;-79
2021/08/05 01:39:08;;;;;;;12.05;7.00;;;;;;;;;;6225363;28;20050;-79
2021/08/05 01:42:10;;;;;;;8.93;6.17;;;;;;;;;;6244967;28;20049;-79
2021/08/05 01:45:14;;;;;;;9.43;5.97;;;;;;;;;;6210950;28;20123;-79
2021/08/05 01:48:18;;;;;;;10.75;6.68;;;;;;;;;;6223700;28;20053;-79
2021/08/05 01:51:21;;;;;;;13.05;7.35;;;;;;;;;;6209863;28;20041;-79
2021/08/05 01:54:23;;;;;;;13.27;7.95;;;;;;;;;;6220218;28;20046;-79
2021/08/05 01:57:25;;;;;;;16.55;8.15;;;;;;;;;;6243888;28;20041;-79
2021/08/05 02:00:27;;;;;;;18.70;9.55;;;;;;;;;;6205779;28;20099;-79
2021/08/05 02:03:29;;;;;;;19.08;9.25;;;;;;;;;;6221944;28;20053;-79
2021/08/05 02:06:35;;;;;;;14.48;8.27;;;;;;;;;;6226073;28;20034;-79
2021/08/05 02:09:53;;;;;;;12.38;7.70;;;;;;;;;;6237606;28;20048;-79
2021/08/05 02:13:28;;;;;;;11.48;7.20;;;;;;;;;;6227068;28;20041;-80
2021/08/05 02:16:31;;;;;;;14.45;7.32;;;;;;;;;;6225998;28;20606;-80
2021/08/05 02:19:34;;;;;;;13.10;7.13;;;;;;;;;;6245393;28;20042;-79
2021/08/05 02:22:39;;;;;;;16.65;8.80;;;;;;;;;;6229992;28;20041;-80
2021/08/05 02:25:42;;;;;;;18.83;9.55;;;;;;;;;;6219130;28;20049;-79
2021/08/05 02:28:45;;;;;;;18.95;9.05;;;;;;;;;;6203301;28;20061;-79
2021/08/05 02:31:47;;;;;;;26.23;11.10;;;;;;;;;;6221946;28;20108;-80
2021/08/05 02:34:50;;;;;;;20.30;9.80;;;;;;;;;;6209988;28;20057;-79
2021/08/05 02:37:51;;;;;;;21.10;10.55;;;;;;;;;;6244496;28;20049;-79
2021/08/05 02:40:54;;;;;;;22.35;10.88;;;;;;;;;;6211060;28;20049;-79
2021/08/05 02:43:57;;;;;;;18.17;9.82;;;;;;;;;;6199331;28;20038;-79
2021/08/05 02:47:00;;;;;;;21.13;9.93;;;;;;;;;;6219916;28;20104;-80
2021/08/05 02:50:04;;;;;;;22.02;10.18;;;;;;;;;;6206476;28;20070;-79
2021/08/05 02:53:06;;;;;;;22.15;10.95;;;;;;;;;;6221653;28;20117;-79
2021/08/05 02:56:09;;;;;;;23.63;10.85;;;;;;;;;;6219982;28;20045;-80
2021/08/05 02:59:15;;;;;;;23.77;10.45;;;;;;;;;;6218483;28;20046;-79
2021/08/05 03:02:17;;;;;;;21.48;10.52;;;;;;;;;;6220989;28;20046;-79
2021/08/05 03:05:19;;;;;;;20.93;10.17;;;;;;;;;;6219653;28;20100;-79
2021/08/05 03:08:21;;;;;;;20.23;9.77;;;;;;;;;;6221257;28;20469;-79
2021/08/05 03:11:23;;;;;;;20.48;10.23;;;;;;;;;;6219792;28;20054;-79
2021/08/05 03:14:24;;;;;;;20.67;9.85;;;;;;;;;;6219864;28;20065;-79
2021/08/05 03:17:26;;;;;;;21.00;10.10;;;;;;;;;;6220978;28;20042;-80
2021/08/05 03:20:28;;;;;;;18.10;9.27;;;;;;;;;;6223216;28;20046;-79
2021/08/05 03:23:30;;;;;;;15.10;8.32;;;;;;;;;;6221508;28;20045;-79
2021/08/05 03:26:31;;;;;;;15.93;9.07;;;;;;;;;;6239163;28;20085;-79
2021/08/05 03:29:33;;;;;;;15.65;8.95;;;;;;;;;;6222878;28;20042;-79
2021/08/05 03:32:35;;;;;;;16.70;8.73;;;;;;;;;;6228128;28;20041;-79
2021/08/05 03:35:37;;;;;;;17.27;8.45;;;;;;;;;;6195502;28;20049;-79
2021/08/05 03:38:38;;;;;;;16.60;8.98;;;;;;;;;;6227374;28;20116;-79
2021/08/05 03:41:40;;;;;;;17.10;9.38;;;;;;;;;;6245036;28;20049;-79
2021/08/05 03:44:42;;;;;;;14.55;8.57;;;;;;;;;;6246310;28;20048;-79
2021/08/05 03:47:43;;;;;;;15.23;8.02;;;;;;;;;;6225032;28;20049;-79
2021/08/05 03:50:46;;;;;;;13.52;8.38;;;;;;;;;;6221893;28;20061;-79
2021/08/05 03:53:47;;;;;;;16.20;9.18;;;;;;;;;;6238822;28;20053;-79
2021/08/05 03:56:49;;;;;;;13.50;7.70;;;;;;;;;;6246625;28;20033;-79
2021/08/05 03:59:51;;;;;;;13.15;7.85;;;;;;;;;;6211884;28;20047;-79
2021/08/05 04:02:53;;;;;;;13.00;7.70;;;;;;;;;;6247935;28;20056;-79
2021/08/05 04:05:55;;;;;;;13.38;7.85;;;;;;;;;;6247275;28;20042;-79
2021/08/05 04:08:56;;;;;;;18.02;9.02;;;;;;;;;;6248262;28;20048;-79
2021/08/05 04:11:58;;;;;;;22.63;9.80;;;;;;;;;;6229028;28;20134;-79
2021/08/05 04:14:59;;;;;;;23.15;10.90;;;;;;;;;;6246446;28;20048;-79
2021/08/05 04:18:01;;;;;;;20.15;9.75;;;;;;;;;;6247657;28;20677;-79
2021/08/05 04:21:03;;;;;;;17.67;9.48;;;;;;;;;;6215720;28;20049;-79
2021/08/05 04:24:04;;;;;;;20.52;11.02;;;;;;;;;;6221488;28;20072;-79
2021/08/05 04:27:06;;;;;;;14.05;8.65;;;;;;;;;;6205807;28;20038;-79
2021/08/05 04:30:11;;;;;;;17.25;8.48;;;;;;;;;;6245053;28;20134;-79
2021/08/05 04:33:12;;;;;;;14.60;7.90;;;;;;;;;;6230771;28;20506;-79
2021/08/05 04:36:14;;;;;;;18.38;9.23;;;;;;;;;;6229977;28;20046;-79
2021/08/05 04:39:15;;;;;;;15.18;9.15;;;;;;;;;;6233792;28;20167;-79
2021/08/05 04:42:17;;;;;;;15.32;8.25;;;;;;;;;;6235350;28;20053;-79
2021/08/05 04:45:19;;;;;;;15.10;8.70;;;;;;;;;;6228817;28;20470;-80
2021/08/05 04:48:21;;;;;;;19.00;9.43;;;;;;;;;;6229611;28;20104;-79
2021/08/05 04:51:22;;;;;;;23.73;10.43;;;;;;;;;;6230371;28;20065;-79
2021/08/05 04:54:24;;;;;;;21.08;10.77;;;;;;;;;;6229903;28;20042;-79
2021/08/05 04:57:26;;;;;;;21.40;10.55;;;;;;;;;;6246845;28;20052;-79
2021/08/05 05:00:30;;;;;;;19.52;10.00;;;;;;;;;;6230554;28;20045;-79
2021/08/05 05:03:32;;;;;;;20.63;9.93;;;;;;;;;;6246883;28;20045;-79
2021/08/05 05:06:34;;;;;;;22.25;10.70;;;;;;;;;;6247175;28;20041;-79
2021/08/05 05:09:35;;;;;;;29.63;11.18;;;;;;;;;;6246422;28;20517;-79
2021/08/05 05:12:37;;;;;;;20.52;10.07;;;;;;;;;;6246231;28;20041;-79
2021/08/05 05:15:39;;;;;;;19.30;9.85;;;;;;;;;;6229706;28;20105;-79
2021/08/05 05:18:41;;;;;;;22.80;11.32;;;;;;;;;;6233915;28;20045;-79
2021/08/05 05:21:43;;;;;;;22.88;11.60;;;;;;;;;;6251056;28;20041;-79
2021/08/05 05:24:44;;;;;;;21.85;11.30;;;;;;;;;;6235016;28;20046;-79
2021/08/05 05:27:46;;;;;;;21.15;11.10;;;;;;;;;;6250922;28;20051;-79
2021/08/05 05:30:49;;;;;;;23.43;11.23;;;;;;;;;;6234234;28;20663;-79
2021/08/05 05:33:51;;;;;;;22.83;11.10;;;;;;;;;;6235091;28;20068;-79
2021/08/05 05:36:52;;;;;;;26.70;11.77;;;;;;;;;;6252407;28;20052;-80
2021/08/05 05:39:55;;;;;;;37.75;11.63;;;;;;;;;;6236519;28;20045;-80
2021/08/05 05:42:57;;;;;;;20.20;10.65;;;;;;;;;;6253156;28;20053;-79
2021/08/05 05:45:58;;;;;;;22.60;10.70;;;;;;;;;;6253345;28;20037;-79
2021/08/05 05:49:00;;;;;;;22.65;11.35;;;;;;;;;;6253313;28;20065;-79
2021/08/05 05:52:02;;;;;;;22.77;11.15;;;;;;;;;;6251721;28;20116;-79
2021/08/05 05:55:04;;;;;;;20.45;10.60;;;;;;;;;;6250251;28;20056;-79
2021/08/05 05:58:06;;;;;;;20.80;10.13;;;;;;;;;;6235997;28;20518;-79
2021/08/05 06:01:07;;;;;;;19.92;10.32;;;;;;;;;;6258091;28;20072;-80
2021/08/05 06:04:09;;;;;;;21.70;10.02;;;;;;;;;;6241295;28;20049;-79
2021/08/05 06:07:10;;;;;;;22.48;10.85;;;;;;;;;;6255875;28;20104;-80
2021/08/05 06:10:15;;;;;;;18.20;10.40;;;;;;;;;;6240891;28;20124;-79
2021/08/05 06:13:16;;;;;;;17.33;9.93;;;;;;;;;;6239707;28;20141;-80
2021/08/05 06:16:18;;;;;;;14.95;8.93;;;;;;;;;;6240237;28;20042;-79
2021/08/05 06:19:20;;;;;;;16.52;8.98;;;;;;;;;;6238370;28;20049;-80
2021/08/05 06:22:21;;;;;;;15.27;8.57;;;;;;;;;;6233179;28;20050;-80
2021/08/05 06:25:23;;;;;;;14.20;8.20;;;;;;;;;;6233196;28;20048;-80
2021/08/05 06:28:24;;;;;;;13.73;8.30;;;;;;;;;;6232576;28;20042;-80
2021/08/05 06:31:26;;;;;;;12.32;7.80;;;;;;;;;;6257538;28;20064;-80
2021/08/05 06:34:28;;;;;;;12.85;8.18;;;;;;;;;;6256643;28;20102;-80
2021/08/05 06:37:31;;;;;;;10.73;7.28;;;;;;;;;;6239659;28;20037;-80
2021/08/05 06:40:33;;;;;;;13.38;7.90;;;;;;;;;;6240442;28;20124;-80
2021/08/05 06:43:35;;;;;;;10.40;6.82;;;;;;;;;;6254400;28;20117;-80
2021/08/05 06:46:36;;;;;;;11.45;7.43;;;;;;;;;;6255302;28;20045;-81
2021/08/05 06:49:39;;;;;;;9.68;7.07;;;;;;;;;;6254941;28;20379;-81
2021/08/05 06:52:40;;;;;;;10.07;7.18;;;;;;;;;;6231627;28;20041;-81
2021/08/05 06:55:42;;;;;;;9.35;6.82;;;;;;;;;;6220755;28;20513;-81
2021/08/05 06:58:44;;;;;;;8.40;6.03;;;;;;;;;;6225997;28;20056;-81
2021/08/05 07:01:46;;;;;;;9.98;6.90;;;;;;;;;;6226305;28;20038;-81
2021/08/05 07:04:48;;;;;;;9.98;7.07;;;;;;;;;;6241590;28;20053;-80
2021/08/05 07:07:50;;;;;;;9.30;6.57;;;;;;;;;;6198873;28;20045;-80
2021/08/05 07:10:52;;;;;;;11.75;6.57;;;;;;;;;;6216599;28;20076;-81
2021/08/05 07:13:54;;;;;;;8.73;6.30;;;;;;;;;;6215075;28;20074;-80
2021/08/05 07:17:00;;;;;;;8.05;6.32;;;;;;;;;;6218579;28;20053;-79
2021/08/05 07:20:03;;;;;;;8.68;6.20;;;;;;;;;;6218538;28;20046;-80
2021/08/05 07:23:04;;;;;;;9.53;6.50;;;;;;;;;;6217176;28;20056;-80
2021/08/05 07:26:06;;;;;;;7.10;5.80;;;;;;;;;;6236624;28;20046;-80
2021/08/05 07:29:08;;;;;;;8.27;6.18;;;;;;;;;;6220708;28;20052;-81
2021/08/05 07:32:09;;;;;;;8.80;6.15;;;;;;;;;;6218653;28;20522;-80
2021/08/05 07:35:12;;;;;;;8.13;6.10;;;;;;;;;;6217630;28;20058;-80
2021/08/05 07:38:13;;;;;;;8.07;6.10;;;;;;;;;;6218802;28;20049;-81
2021/08/05 07:41:15;;;;;;;10.20;6.05;;;;;;;;;;6218787;28;20038;-80
2021/08/05 07:44:17;;;;;;;6.95;5.88;;;;;;;;;;6217754;28;20509;-81
2021/08/05 07:47:19;;;;;;;6.85;5.80;;;;;;;;;;6210851;28;20412;-80
2021/08/05 07:50:20;;;;;;;8.63;5.70;;;;;;;;;;6219681;28;20177;-80
2021/08/05 07:53:22;;;;;;;7.53;5.72;;;;;;;;;;6246718;28;20041;-79
2021/08/05 07:56:24;;;;;;;6.05;4.90;;;;;;;;;;6247554;28;20120;-79
2021/08/05 07:59:25;;;;;;;7.93;5.30;;;;;;;;;;6247269;28;20101;-78
2021/08/05 08:02:28;;;;;;;7.03;5.78;;;;;;;;;;6231837;28;20045;-79
2021/08/05 08:05:30;;;;;;;;;;;;;;;;;;6248890;28;20045;-79
2021/08/05 08:08:32;;;;;;;6.88;5.70;;;;;;;;;;6255194;28;20015;-79
2021/08/05 08:11:33;;;;;;;5.83;5.20;;;;;;;;;;6250990;28;20041;-79
2021/08/05 08:14:35;;;;;;;6.95;5.35;;;;;;;;;;6208983;28;20069;-79
2021/08/05 08:17:37;;;;;;;6.28;5.57;;;;;;;;;;6221204;28;20565;-80
2021/08/05 08:20:39;;;;;;;5.68;4.88;;;;;;;;;;6213160;28;20498;-80
2021/08/05 08:23:41;;;;;;;6.32;5.72;;;;;;;;;;6244563;28;20044;-80
2021/08/05 08:26:42;;;;;;;6.40;5.32;;;;;;;;;;6225690;28;20049;-80
2021/08/05 08:29:44;;;;;;;5.65;4.90;;;;;;;;;;6205347;28;20042;-80
2021/08/05 08:32:47;;;;;;;6.00;5.40;;;;;;;;;;6219663;28;20184;-79
2021/08/05 08:35:48;;;;;;;5.85;5.13;;;;;;;;;;6218161;28;20126;-80
2021/08/05 08:38:50;;;;;;;5.63;5.07;;;;;;;;;;6221413;28;20499;-80
2021/08/05 08:41:52;;;;;;;5.93;5.32;;;;;;;;;;6221139;28;20073;-81
2021/08/05 08:44:53;;;;;;;6.15;5.55;;;;;;;;;;6207482;28;20043;-80
2021/08/05 08:47:55;;;;;;;7.72;5.95;;;;;;;;;;6201092;28;20038;-80
2021/08/05 08:51:01;;;;;;;6.25;5.65;;;;;;;;;;6221860;28;20045;-80
2021/08/05 08:54:07;;;;;;;6.63;5.82;;;;;;;;;;6240764;28;20045;-81
2021/08/05 08:57:10;;;;;;;6.82;6.13;;;;;;;;;;6224531;28;20129;-82
2021/08/05 09:00:12;;;;;;;6.70;5.95;;;;;;;;;;6225059;28;20049;-81
2021/08/05 09:03:14;;;;;;;7.07;6.00;;;;;;;;;;6240268;28;20485;-82
2021/08/05 09:06:16;;;;;;;11.05;6.43;;;;;;;;;;6223158;28;20129;-81
2021/08/05 09:09:18;;;;;;;7.40;6.32;;;;;;;;;;6228390;28;20046;-80
2021/08/05 09:12:20;;;;;;;7.53;6.53;;;;;;;;;;6244321;28;20045;-80
2021/08/05 09:15:51;;;;;;;6.95;6.20;;;;;;;;;;6228778;28;20578;-80
2021/08/05 09:18:52;;;;;;;8.32;6.30;;;;;;;;;;6210698;28;20037;-82
2021/08/05 09:22:00;;;;;;;6.50;5.85;;;;;;;;;;6218979;28;20048;-81
2021/08/05 09:25:17;;;;;;;7.65;5.75;;;;;;;;;;6214228;28;20847;-82
2021/08/05 09:28:19;;;;;;;6.97;6.25;;;;;;;;;;6220532;28;20053;-83
2021/08/05 09:31:20;;;;;;;8.27;7.30;;;;;;;;;;6216181;28;20622;-82
2021/08/05 09:34:36;;;;;;;11.77;8.10;;;;;;;;;;6223169;28;20038;-82
2021/08/05 09:37:39;;;;;;;9.70;8.25;;;;;;;;;;6248515;28;20045;-80
2021/08/05 09:40:42;;;;;;;9.23;8.32;;;;;;;;;;6256329;28;20047;-79
2021/08/05 09:43:43;;;;;;;10.55;8.40;;;;;;;;;;6259002;28;20101;-79
2021/08/05 09:46:45;;;;;;;14.70;9.77;;;;;;;;;;6242514;28;20084;-81
2021/08/05 09:49:47;;;;;;;14.25;10.35;;;;;;;;;;6241254;28;20123;-83
2021/08/05 09:52:49;;;;;;;13.50;10.55;;;;;;;;;;6241189;28;20051;-83
2021/08/05 09:56:10;;;;;;;13.90;9.90;;;;;;;;;;6242230;28;20135;-85
2021/08/05 09:59:13;;;;;;;16.60;11.65;;;;;;;;;;6242353;28;20124;-84
2021/08/05 10:02:15;;;;;;;15.45;12.00;;;;;;;;;;6240709;28;20049;-83
2021/08/05 10:05:25;;;;;;;13.73;10.73;;;;;;;;;;6223951;28;20052;-83
2021/08/05 10:08:42;;;;;;;13.40;11.73;;;;;;;;;;6239829;28;20088;-84
2021/08/05 10:11:46;;;;;;;14.10;11.35;;;;;;;;;;6239597;28;20063;-82
2021/08/05 10:14:49;;;;;;;12.65;10.27;;;;;;;;;;6224554;28;20068;-82
2021/08/05 10:17:59;;;;;;;12.57;10.80;;;;;;;;;;6243441;28;20045;-82
2021/08/05 10:21:07;;;;;;;12.52;10.23;;;;;;;;;;6243552;28;20041;-83
2021/08/05 10:24:09;;;;;;;13.00;9.88;;;;;;;;;;6225986;28;20046;-82
2021/08/05 10:27:12;;;;;;;13.82;9.32;;;;;;;;;;6227984;28;20055;-82
2021/08/05 10:30:16;;;;;;;11.68;9.20;;;;;;;;;;6245671;28;20045;-81
2021/08/05 10:33:18;;;;;;;623.15;165.75;;;;;;;;;;6229450;28;20045;-81
2021/08/05 10:36:20;;;;;;;12.65;9.43;;;;;;;;;;6244510;28;20414;-82
2021/08/05 10:39:22;;;;;;;8.23;7.32;;;;;;;;;;6249949;28;20049;-80
2021/08/05 10:42:24;;;;;;;50.20;16.52;;;;;;;;;;6255048;28;20049;-79
2021/08/05 10:45:27;;;;;;;16.00;8.00;;;;;;;;;;6258788;28;20084;-79
2021/08/05 10:48:29;;;;;;;48.80;16.67;;;;;;;;;;6242671;28;20051;-82
2021/08/05 10:51:35;;;;;;;53.00;17.67;;;;;;;;;;6228476;28;20049;-82
2021/08/05 10:54:53;;;;;;;6.47;5.75;;;;;;;;;;6207342;28;20042;-81
2021/08/05 10:58:16;;;;;;;18.48;9.38;;;;;;;;;;6214357;28;20091;-82
2021/08/05 11:01:17;;;;;;;16.95;8.88;;;;;;;;;;6229759;28;20105;-82
2021/08/05 11:04:46;;;;;;;16.05;8.70;;;;;;;;;;6227303;28;20068;-80
2021/08/05 11:07:55;;;;;;;28.73;11.70;;;;;;;;;;6205474;28;20058;-82
2021/08/05 11:11:22;;;;;;;15.98;9.52;;;;;;;;;;6221951;28;20158;-80
2021/08/05 11:14:27;;;;;;;19.27;9.75;;;;;;;;;;6232784;28;20128;-79
2021/08/05 11:17:28;;;;;;;15.13;7.82;;;;;;;;;;6213201;28;20050;-82
2021/08/05 11:20:30;;;;;;;16.67;9.05;;;;;;;;;;6227783;28;20121;-82
2021/08/05 11:23:34;;;;;;;12.05;7.38;;;;;;;;;;6230459;28;20042;-79
2021/08/05 11:27:14;;;;;;;10.75;6.35;;;;;;;;;;6200675;28;20048;-80
2021/08/05 11:30:58;;;;;;;10.48;6.40;;;;;;;;;;6217348;28;20038;-81
2021/08/05 11:34:04;;;;;;;7.75;5.90;;;;;;;;;;6142284;28;20047;-80
2021/08/05 11:37:09;;;;;;;8.68;6.43;;;;;;;;;;6231755;28;20046;-81
2021/08/05 11:40:11;;;;;;;8.82;6.50;;;;;;;;;;6234547;28;20041;-79
2021/08/05 11:43:19;;;;;;;9.85;6.65;;;;;;;;;;6230445;28;20113;-81
2021/08/05 11:46:21;;;;;;;7.75;6.47;;;;;;;;;;6227685;28;20083;-81
2021/08/05 11:49:56;;;;;;;6.37;4.77;;;;;;;;;;6226141;28;20061;-83
2021/08/05 11:53:01;;;;;;;8.02;5.40;;;;;;;;;;6224238;28;20049;-82
2021/08/05 11:56:10;;;;;;;6.25;5.65;;;;;;;;;;6242889;28;20068;-82
2021/08/05 11:59:38;;;;;;;6.95;5.22;;;;;;;;;;6226483;28;20050;-81
2021/08/05 12:02:41;;;;;;;6.10;5.50;;;;;;;;;;6234428;28;20062;-82
2021/08/05 12:05:49;;;;;;;6.32;5.63;;;;;;;;;;6246454;28;20049;-82
2021/08/05 12:09:13;;;;;;;6.18;5.57;;;;;;;;;;6229533;28;20049;-82
2021/08/05 12:12:15;;;;;;;6.47;5.82;;;;;;;;;;6226629;28;20101;-82
2021/08/05 12:15:23;;;;;;;6.03;5.43;;;;;;;;;;6228641;28;20049;-82
2021/08/05 12:18:26;;;;;;;5.97;5.38;;;;;;;;;;6228580;28;20045;-82
2021/08/05 12:21:32;;;;;;;6.20;5.60;;;;;;;;;;6228586;28;20093;-82
2021/08/05 12:24:42;;;;;;;6.25;5.72;;;;;;;;;;6245403;28;20085;-81
2021/08/05 12:27:52;;;;;;;6.57;5.20;;;;;;;;;;6228904;28;20045;-82
2021/08/05 12:30:56;;;;;;;5.80;5.30;;;;;;;;;;6232631;28;20052;-82
2021/08/05 12:33:58;;;;;;;6.40;5.90;;;;;;;;;;6250541;28;20038;-80
2021/08/05 12:37:13;;;;;;;6.95;5.60;;;;;;;;;;6249616;28;20059;-81
2021/08/05 12:40:15;;;;;;;8.20;5.95;;;;;;;;;;6252469;28;20046;-82
2021/08/05 12:43:17;;;;;;;8.40;5.78;;;;;;;;;;6229083;28;20050;-81
2021/08/05 12:46:20;;;;;;;6.25;5.65;;;;;;;;;;6223776;28;20042;-81
2021/08/05 12:49:36;;;;;;;6.35;5.32;;;;;;;;;;6238095;28;20042;-81
2021/08/05 12:52:39;;;;;;;6.60;5.47;;;;;;;;;;6199646;28;20399;-81
2021/08/05 12:55:52;;;;;;;5.57;5.07;;;;;;;;;;6212220;28;20038;-81
2021/08/05 12:58:57;;;;;;;5.38;4.88;;;;;;;;;;6200911;28;20403;-82
2021/08/05 13:02:07;;;;;;;5.45;4.95;;;;;;;;;;6222806;28;20045;-83
2021/08/05 13:05:15;;;;;;;6.60;5.40;;;;;;;;;;6217268;28;20407;-82
2021/08/05 13:08:34;;;;;;;5.82;4.95;;;;;;;;;;6225217;28;20038;-82
2021/08/05 13:11:39;;;;;;;6.93;4.80;;;;;;;;;;6220586;28;20045;-81
2021/08/05 13:14:42;;;;;;;5.10;4.60;;;;;;;;;;6207521;28;20521;-85
2021/08/05 13:17:44;;;;;;;4.97;4.15;;;;;;;;;;6222909;28;20050;-83
2021/08/05 13:20:45;;;;;;;4.80;4.40;;;;;;;;;;6221844;28;20068;-83
2021/08/05 13:23:47;;;;;;;4.97;4.55;;;;;;;;;;6222162;28;20137;-82
2021/08/05 13:26:51;;;;;;;5.60;4.50;;;;;;;;;;6224460;28;20738;-83
2021/08/05 13:29:54;;;;;;;4.10;3.70;;;;;;;;;;6186138;28;20129;-83
2021/08/05 13:32:55;;;;;;;4.18;3.88;;;;;;;;;;6196637;28;20046;-83
2021/08/05 13:35:59;;;;;;;4.20;3.80;;;;;;;;;;6210667;28;20046;-83
2021/08/05 13:39:01;;;;;;;4.13;3.72;;;;;;;;;;6222680;28;20053;-83
2021/08/05 13:42:05;;;;;;;4.50;4.10;;;;;;;;;;6209525;28;20037;-83
2021/08/05 13:45:08;;;;;;;4.50;3.63;;;;;;;;;;6225044;28;20053;-83
2021/08/05 13:48:11;;;;;;;4.53;3.72;;;;;;;;;;6241428;28;20042;-83
2021/08/05 13:51:13;;;;;;;4.38;3.92;;;;;;;;;;6228196;28;20537;-83
2021/08/05 13:54:14;;;;;;;7.17;4.00;;;;;;;;;;6226097;28;20045;-83
2021/08/05 13:57:17;;;;;;;4.47;3.88;;;;;;;;;;6224878;28;20046;-83
2021/08/05 14:00:20;;;;;;;4.90;4.07;;;;;;;;;;6223602;28;20041;-83
2021/08/05 14:03:22;;;;;;;4.88;4.00;;;;;;;;;;6223648;28;20061;-82
2021/08/05 14:06:24;;;;;;;4.28;3.88;;;;;;;;;;6218507;28;20046;-83
2021/08/05 14:09:27;;;;;;;4.20;3.80;;;;;;;;;;6227549;28;20053;-83
2021/08/05 14:12:29;;;;;;;3.95;3.65;;;;;;;;;;6225866;28;20152;-83
2021/08/05 14:15:31;;;;;;;4.03;3.67;;;;;;;;;;6220223;28;20121;-83
2021/08/05 14:18:32;;;;;;;4.40;3.80;;;;;;;;;;6221226;28;20052;-83
2021/08/05 14:21:34;;;;;;;4.03;3.70;;;;;;;;;;6222335;28;20057;-83
2021/08/05 14:24:38;;;;;;;3.67;3.38;;;;;;;;;;6204167;28;20046;-83
2021/08/05 14:27:40;;;;;;;4.28;3.17;;;;;;;;;;6216020;28;20050;-83
2021/08/05 14:30:42;;;;;;;3.60;3.30;;;;;;;;;;6216419;28;20046;-82
2021/08/05 14:33:44;;;;;;;4.00;3.60;;;;;;;;;;6223107;28;20037;-82
2021/08/05 14:36:45;;;;;;;3.93;3.60;;;;;;;;;;6226849;28;20063;-83
2021/08/05 14:39:47;;;;;;;5.23;3.93;;;;;;;;;;6222608;28;20041;-83
2021/08/05 14:42:49;;;;;;;4.30;3.90;;;;;;;;;;6224355;28;20573;-83
2021/08/05 14:45:51;;;;;;;4.45;4.05;;;;;;;;;;6219522;28;20663;-83
2021/08/05 14:48:52;;;;;;;5.13;3.80;;;;;;;;;;6222774;28;20056;-83
2021/08/05 14:51:54;;;;;;;4.33;3.93;;;;;;;;;;6222452;28;20903;-83
2021/08/05 14:54:56;;;;;;;3.80;3.50;;;;;;;;;;6223214;28;20451;-83
2021/08/05 14:57:57;;;;;;;4.18;3.40;;;;;;;;;;6237922;28;20044;-78
2021/08/05 15:00:59;;;;;;;4.78;3.60;;;;;;;;;;6218243;28;20052;-77
2021/08/05 15:04:02;;;;;;;3.53;3.22;;;;;;;;;;6218357;28;20104;-78
2021/08/05 15:07:04;;;;;;;3.75;3.17;;;;;;;;;;6237786;28;20069;-81
2021/08/05 15:10:06;;;;;;;3.42;3.13;;;;;;;;;;6232290;28;20049;-81
2021/08/05 15:13:08;;;;;;;3.40;3.10;;;;;;;;;;6247025;28;20187;-80
2021/08/05 15:16:10;;;;;;;3.15;2.92;;;;;;;;;;6255637;28;20211;-80
2021/08/05 15:19:12;;;;;;;2.75;2.38;;;;;;;;;;6221450;28;20109;-79
2021/08/05 15:22:14;;;;;;;3.33;2.60;;;;;;;;;;6198248;28;20060;-79
2021/08/05 15:25:17;;;;;;;3.40;2.43;;;;;;;;;;6241999;28;20426;-79
2021/08/05 15:28:19;;;;;;;4.35;2.60;;;;;;;;;;6253465;28;20515;-81
2021/08/05 15:31:21;;;;;;;3.00;2.70;;;;;;;;;;6231461;28;20045;-80
2021/08/05 15:34:22;;;;;;;3.75;2.53;;;;;;;;;;6248958;28;20050;-78
2021/08/05 15:37:24;;;;;;;2.50;2.30;;;;;;;;;;6234221;28;20080;-78
2021/08/05 15:40:27;;;;;;;3.15;2.55;;;;;;;;;;6251549;28;20037;-80
2021/08/05 15:43:29;;;;;;;3.08;2.78;;;;;;;;;;6248212;28;20041;-79
2021/08/05 15:46:30;;;;;;;4.57;2.88;;;;;;;;;;6250901;28;20128;-80
2021/08/05 15:49:33;;;;;;;3.10;2.60;;;;;;;;;;6250724;28;20124;-79
2021/08/05 15:52:34;;;;;;;3.60;2.60;;;;;;;;;;6250529;28;21031;-81
2021/08/05 15:55:36;;;;;;;3.08;2.78;;;;;;;;;;6249953;28;20057;-79
2021/08/05 15:58:38;;;;;;;3.50;2.83;;;;;;;;;;6245536;28;20045;-79
2021/08/05 16:01:40;;;;;;;3.30;2.83;;;;;;;;;;6246139;28;20041;-79
2021/08/05 16:04:45;;;;;;;2.90;2.60;;;;;;;;;;6231697;28;20136;-77
2021/08/05 16:07:48;;;;;;;4.22;2.42;;;;;;;;;;6224760;28;20092;-79
2021/08/05 16:10:50;;;;;;;3.60;2.80;;;;;;;;;;6253962;28;20037;-77
2021/08/05 16:13:51;;;;;;;3.00;2.70;;;;;;;;;;6232595;28;20046;-79
2021/08/05 16:16:53;;;;;;;4.65;2.70;;;;;;;;;;6229650;28;20044;-79
2021/08/05 16:19:55;;;;;;;3.35;2.75;;;;;;;;;;6262176;28;20065;-78
2021/08/05 16:22:56;;;;;;;4.10;2.90;;;;;;;;;;6251655;28;20101;-80
2021/08/05 16:25:59;;;;;;;3.50;2.90;;;;;;;;;;6244187;28;20053;-79
2021/08/05 16:29:00;;;;;;;4.55;2.95;;;;;;;;;;6241187;28;20433;-81
2021/08/05 16:32:02;;;;;;;3.05;2.72;;;;;;;;;;6213610;28;20084;-79
2021/08/05 16:35:04;;;;;;;3.53;2.80;;;;;;;;;;6244815;28;20141;-78
2021/08/05 16:38:06;;;;;;;3.30;2.60;;;;;;;;;;6251559;28;20519;-77
2021/08/05 16:41:07;;;;;;;3.15;2.85;;;;;;;;;;6251516;28;20417;-78
2021/08/05 16:44:10;;;;;;;3.05;2.75;;;;;;;;;;6231675;28;20046;-77
2021/08/05 16:47:12;;;;;;;4.72;3.35;;;;;;;;;;6251235;28;20076;-77
2021/08/05 16:50:14;;;;;;;4.23;3.47;;;;;;;;;;6234018;28;20049;-79
2021/08/05 16:53:16;;;;;;;3.33;3.03;;;;;;;;;;6253582;28;20439;-79
2021/08/05 16:56:18;;;;;;;4.15;3.33;;;;;;;;;;6250727;28;20093;-79
2021/08/05 16:59:19;;;;;;;3.88;3.03;;;;;;;;;;6229848;28;20042;-77
2021/08/05 17:02:21;;;;;;;3.63;3.10;;;;;;;;;;6230699;28;20110;-78
2021/08/05 17:05:23;;;;;;;3.67;3.33;;;;;;;;;;6228688;28;20096;-79
2021/08/05 17:08:25;;;;;;;4.20;3.22;;;;;;;;;;6231434;28;20045;-78
2021/08/05 17:11:26;;;;;;;4.10;3.08;;;;;;;;;;6233568;28;20052;-79
2021/08/05 17:14:28;;;;;;;4.13;3.13;;;;;;;;;;6232538;28;20102;-78
2021/08/05 17:17:30;;;;;;;3.95;2.90;;;;;;;;;;6251244;28;20068;-79
2021/08/05 17:20:34;;;;;;;3.85;3.13;;;;;;;;;;6232695;28;20157;-79
2021/08/05 17:23:37;;;;;;;4.20;2.90;;;;;;;;;;6248190;28;20088;-78
2021/08/05 17:26:39;;;;;;;3.22;2.65;;;;;;;;;;6233105;28;20053;-79
2021/08/05 17:29:41;;;;;;;3.20;2.55;;;;;;;;;;6213738;28;20042;-81
2021/08/05 17:32:43;;;;;;;4.10;2.47;;;;;;;;;;6228961;28;20502;-80
2021/08/05 17:35:45;;;;;;;4.03;2.60;;;;;;;;;;6229520;28;20051;-80
2021/08/05 17:38:47;;;;;;;2.60;2.33;;;;;;;;;;6243410;28;20049;-80
2021/08/05 17:41:49;;;;;;;4.13;2.42;;;;;;;;;;6223051;28;20049;-79
2021/08/05 17:44:53;;;;;;;3.92;2.30;;;;;;;;;;6212358;28;20045;-79
2021/08/05 17:47:55;;;;;;;3.00;2.13;;;;;;;;;;6231291;28;20053;-83
2021/08/05 17:50:58;;;;;;;;;;;;;;;;;;6220354;28;20069;-82
2021/08/05 17:54:00;;;;;;;2.25;1.92;;;;;;;;;;6211274;28;20362;-84
2021/08/05 17:57:04;;;;;;;2.72;1.75;;;;;;;;;;6231179;28;20069;-82
2021/08/05 18:00:09;;;;;;;2.05;1.83;;;;;;;;;;6210620;28;20056;-82
2021/08/05 18:03:11;;;;;;;2.20;2.00;;;;;;;;;;6253658;28;20046;-82
2021/08/05 18:06:13;;;;;;;2.85;1.90;;;;;;;;;;6250885;28;20534;-82
2021/08/05 18:09:14;;;;;;;2.53;2.10;;;;;;;;;;6236312;28;20045;-83
2021/08/05 18:12:16;;;;;;;2.20;1.95;;;;;;;;;;6235391;28;20103;-82